Time;durP1;ratioP1;P1;durP2;ratioP2;P2;SDS_P1;SDS_P2;PMS_P1;PMS_P2;Temp;Humidity;BMP_temperature;BMP_pressure;BME280_temperature;BME280_humidity;BME280_pressure;Samples;Min_cycle;Max_cycle;Signal;HPM_P1;HPM_P2
2022/08/31 00:06:02;;;;;;;2.93;1.40;;;17.50;99.90;;;;;;5032819;28;20209;-87
2022/08/31 00:08:29;;;;;;;2.23;1.50;;;17.50;99.90;;;;;;5014772;28;20182;-87
2022/08/31 00:10:55;;;;;;;1.70;1.60;;;17.40;99.90;;;;;;5014608;28;20783;-86
2022/08/31 00:13:22;;;;;;;1.50;1.40;;;17.40;99.90;;;;;;5014638;28;20548;-88
2022/08/31 00:15:49;;;;;;;2.87;1.60;;;17.30;99.90;;;;;;5032066;28;20186;-87
2022/08/31 00:18:16;;;;;;;1.70;1.40;;;17.30;99.90;;;;;;5014694;28;20209;-88
2022/08/31 00:20:42;;;;;;;2.27;1.30;;;17.20;99.90;;;;;;5014818;28;20225;-86
2022/08/31 00:23:12;;;;;;;1.60;1.20;;;17.20;99.90;;;;;;5014407;28;20578;-87
2022/08/31 00:25:40;;;;;;;4.67;1.60;;;17.10;99.90;;;;;;5014433;28;20182;-87
2022/08/31 00:28:07;;;;;;;3.73;1.70;;;17.20;99.90;;;;;;5014446;28;20289;-87
2022/08/31 00:30:33;;;;;;;3.30;1.80;;;17.10;99.90;;;;;;5014678;28;20245;-88
2022/08/31 00:33:00;;;;;;;2.33;1.50;;;17.10;99.90;;;;;;5014334;28;20677;-87
2022/08/31 00:35:27;;;;;;;1.40;1.30;;;17.10;99.90;;;;;;5014635;28;20204;-88
2022/08/31 00:37:53;;;;;;;1.47;1.30;;;16.90;99.90;;;;;;5014446;28;20197;-87
2022/08/31 00:40:20;;;;;;;1.40;1.30;;;16.90;99.90;;;;;;5014566;28;20174;-87
2022/08/31 00:42:46;;;;;;;2.30;1.43;;;16.90;99.90;;;;;;5014179;28;20178;-87
2022/08/31 00:45:11;;;;;;;1.60;1.30;;;16.90;99.90;;;;;;5014307;28;20178;-88
2022/08/31 00:47:37;;;;;;;1.30;1.20;;;16.80;99.90;;;;;;5014409;28;20233;-87
2022/08/31 00:50:06;;;;;;;1.53;1.30;;;16.80;99.90;;;;;;5014277;28;20703;-88
2022/08/31 00:52:36;;;;;;;1.77;1.40;;;16.80;99.90;;;;;;5014272;28;20198;-88
2022/08/31 00:55:10;;;;;;;2.87;1.30;;;16.70;99.90;;;;;;5014319;28;20200;-88
2022/08/31 00:57:39;;;;;;;5.50;1.53;;;16.70;99.90;;;;;;5014298;28;20229;-87
2022/08/31 01:00:09;;;;;;;1.57;1.47;;;16.60;99.90;;;;;;5014076;28;20253;-87
2022/08/31 01:02:35;;;;;;;3.60;1.30;;;16.60;99.90;;;;;;5014161;28;20267;-87
2022/08/31 01:05:01;;;;;;;2.23;1.47;;;16.50;99.90;;;;;;5017424;28;20645;-87
2022/08/31 01:07:26;;;;;;;1.13;1.13;;;16.60;99.90;;;;;;5017654;28;20693;-86
2022/08/31 01:09:55;;;;;;;2.90;1.30;;;16.60;99.90;;;;;;5017631;28;20817;-87
2022/08/31 01:12:20;;;;;;;3.90;1.20;;;16.50;99.90;;;;;;5017363;28;20199;-87
2022/08/31 01:14:46;;;;;;;1.37;1.20;;;16.50;99.90;;;;;;5017518;28;20209;-87
2022/08/31 01:17:13;;;;;;;1.17;1.10;;;16.40;99.90;;;;;;5017484;28;20259;-87
2022/08/31 01:19:45;;;;;;;3.23;1.30;;;16.30;99.90;;;;;;5017457;28;20668;-87
2022/08/31 01:22:29;;;;;;;1.30;1.17;;;16.40;99.90;;;;;;5017620;28;20546;-87
2022/08/31 01:24:56;;;;;;;2.60;1.20;;;16.40;99.90;;;;;;5017323;28;20590;-87
2022/08/31 01:27:27;;;;;;;1.40;1.30;;;16.30;99.90;;;;;;5017426;28;20218;-86
2022/08/31 01:29:57;;;;;;;1.97;1.30;;;16.20;99.90;;;;;;5017326;28;20181;-87
2022/08/31 01:32:22;;;;;;;6.13;1.27;;;16.10;99.90;;;;;;5017118;28;20201;-87
2022/08/31 01:34:48;;;;;;;1.63;1.23;;;16.10;99.90;;;;;;5017043;28;20170;-87
2022/08/31 01:37:14;;;;;;;1.77;1.47;;;16.10;99.90;;;;;;5017028;28;20287;-87
2022/08/31 01:39:40;;;;;;;2.83;1.20;;;16.10;99.90;;;;;;5016914;28;20178;-88
2022/08/31 01:42:07;;;;;;;2.63;1.40;;;16.10;99.90;;;;;;5016946;28;20182;-88
2022/08/31 01:44:32;;;;;;;1.20;1.20;;;16.00;99.90;;;;;;5016937;28;20259;-88
2022/08/31 01:46:58;;;;;;;3.20;1.23;;;16.00;99.90;;;;;;5016834;28;20302;-87
2022/08/31 01:49:24;;;;;;;5.13;1.57;;;16.00;99.90;;;;;;5016798;28;20203;-87
2022/08/31 01:51:51;;;;;;;2.00;1.20;;;16.00;99.90;;;;;;5016556;28;20234;-87
2022/08/31 01:54:17;;;;;;;1.40;1.30;;;16.00;99.90;;;;;;5016706;28;20216;-87
2022/08/31 01:56:44;;;;;;;2.93;1.43;;;15.90;99.90;;;;;;5016509;28;20221;-88
2022/08/31 01:59:11;;;;;;;3.33;1.33;;;15.70;99.90;;;;;;5016163;28;20224;-87
2022/08/31 02:01:43;;;;;;;2.40;1.23;;;15.80;99.90;;;;;;5016450;28;20196;-87
2022/08/31 02:04:10;;;;;;;1.50;1.40;;;15.80;99.90;;;;;;5016306;28;20688;-87
2022/08/31 02:06:38;;;;;;;4.07;1.20;;;15.80;99.90;;;;;;5016296;28;20198;-87
2022/08/31 02:09:05;;;;;;;3.73;1.40;;;15.80;99.90;;;;;;5016488;28;20261;-88
2022/08/31 02:11:31;;;;;;;1.37;1.23;;;15.70;99.90;;;;;;5016081;28;20181;-87
2022/08/31 02:13:57;;;;;;;2.40;1.20;;;15.70;99.90;;;;;;5015504;28;20288;-88
2022/08/31 02:16:22;;;;;;;2.93;1.40;;;15.60;99.90;;;;;;5015399;28;20304;-87
2022/08/31 02:18:48;;;;;;;1.13;1.13;;;15.50;99.90;;;;;;5016358;28;20639;-88
2022/08/31 02:21:14;;;;;;;1.43;1.30;;;15.50;99.90;;;;;;5016170;28;20614;-87
2022/08/31 02:23:40;;;;;;;2.00;0.90;;;15.60;99.90;;;;;;5016208;28;20178;-88
2022/08/31 02:26:06;;;;;;;4.93;1.50;;;15.50;99.90;;;;;;5015904;28;20206;-88
2022/08/31 02:28:33;;;;;;;1.30;1.20;;;15.50;99.90;;;;;;5016140;28;20178;-86
2022/08/31 02:30:58;;;;;;;3.27;1.40;;;15.40;99.90;;;;;;5016255;28;20216;-87
2022/08/31 02:33:24;;;;;;;1.70;1.30;;;15.30;99.90;;;;;;5015838;28;20615;-87
2022/08/31 02:35:51;;;;;;;1.20;1.10;;;15.40;99.90;;;;;;5015725;28;20635;-88
2022/08/31 02:38:17;;;;;;;1.30;1.20;;;15.30;99.90;;;;;;5015847;28;20555;-87
2022/08/31 02:40:43;;;;;;;4.20;1.70;;;15.30;99.90;;;;;;5016056;28;20170;-87
2022/08/31 02:43:10;;;;;;;1.33;1.23;;;15.30;99.90;;;;;;5015920;28;20188;-87
2022/08/31 02:45:37;;;;;;;4.27;1.50;;;15.30;99.90;;;;;;5015802;28;20182;-87
2022/08/31 02:48:05;;;;;;;1.17;1.10;;;15.30;99.90;;;;;;5015627;28;20624;-88
2022/08/31 02:50:31;;;;;;;1.83;1.30;;;15.20;99.90;;;;;;5015745;28;20173;-88
2022/08/31 02:52:57;;;;;;;2.93;1.30;;;15.10;99.90;;;;;;5015600;28;20204;-88
2022/08/31 02:55:26;;;;;;;1.73;1.20;;;15.20;99.90;;;;;;5015577;28;20268;-88
2022/08/31 02:57:52;;;;;;;2.13;1.00;;;15.20;99.90;;;;;;5016012;28;20234;-87
2022/08/31 03:00:20;;;;;;;3.00;1.20;;;15.00;99.90;;;;;;5015403;28;20191;-87
2022/08/31 03:02:47;;;;;;;1.53;1.30;;;15.00;99.90;;;;;;5015483;28;20706;-88
2022/08/31 03:05:14;;;;;;;1.40;1.30;;;15.00;99.90;;;;;;5015419;28;20182;-88
2022/08/31 03:07:40;;;;;;;1.97;1.17;;;14.90;99.90;;;;;;5015299;28;20247;-88
2022/08/31 03:10:10;;;;;;;1.90;1.17;;;14.90;99.90;;;;;;5015292;28;20573;-88
2022/08/31 03:12:36;;;;;;;1.17;1.17;;;14.90;99.90;;;;;;5015246;28;20190;-88
2022/08/31 03:15:03;;;;;;;2.10;1.20;;;14.90;99.90;;;;;;5015077;28;20284;-88
2022/08/31 03:17:29;;;;;;;1.40;1.20;;;14.90;99.90;;;;;;5015088;28;20609;-88
2022/08/31 03:20:01;;;;;;;1.43;1.30;;;14.70;99.90;;;;;;5015217;28;20178;-88
2022/08/31 03:22:27;;;;;;;2.50;1.47;;;14.70;99.90;;;;;;5014982;28;20173;-88
2022/08/31 03:24:53;;;;;;;2.27;1.23;;;14.80;99.90;;;;;;5014898;28;20185;-88
2022/08/31 03:27:19;;;;;;;2.47;1.47;;;14.80;99.90;;;;;;5014652;28;20198;-88
2022/08/31 03:29:45;;;;;;;2.10;1.20;;;14.70;99.90;;;;;;5014922;28;20544;-88
2022/08/31 03:32:10;;;;;;;1.30;1.20;;;14.70;99.90;;;;;;5014958;28;20339;-88
2022/08/31 03:34:36;;;;;;;2.53;1.37;;;14.70;99.90;;;;;;5014956;28;20181;-87
2022/08/31 03:37:03;;;;;;;1.97;1.30;;;14.70;99.90;;;;;;5015001;28;20197;-88
2022/08/31 03:39:28;;;;;;;2.23;1.40;;;14.70;99.90;;;;;;5015372;28;20593;-88
2022/08/31 03:41:54;;;;;;;2.60;1.30;;;14.70;99.90;;;;;;5015286;28;20178;-88
2022/08/31 03:44:22;;;;;;;4.77;1.43;;;14.70;99.90;;;;;;5014985;28;20261;-87
2022/08/31 03:46:49;;;;;;;1.30;1.30;;;14.60;99.90;;;;;;5015197;28;20205;-88
2022/08/31 03:49:17;;;;;;;3.47;1.23;;;14.60;99.90;;;;;;5014862;28;20220;-87
2022/08/31 03:51:44;;;;;;;4.40;1.30;;;14.50;99.90;;;;;;5014912;28;20215;-87
2022/08/31 03:54:10;;;;;;;2.13;1.40;;;14.50;99.90;;;;;;5014828;28;20181;-88
2022/08/31 03:56:37;;;;;;;2.53;1.30;;;14.50;99.90;;;;;;5014742;28;20197;-87
2022/08/31 03:59:03;;;;;;;2.73;1.37;;;14.50;99.90;;;;;;5014888;28;20608;-87
2022/08/31 04:01:29;;;;;;;1.83;1.20;;;14.40;99.90;;;;;;5014686;28;20272;-88
2022/08/31 04:03:54;;;;;;;1.40;1.30;;;14.30;99.90;;;;;;5014732;28;20184;-88
2022/08/31 04:06:21;;;;;;;2.70;1.77;;;14.30;99.90;;;;;;5014508;28;20267;-88
2022/08/31 04:08:47;;;;;;;2.93;1.33;;;14.40;99.90;;;;;;5014957;28;20182;-89
2022/08/31 04:11:16;;;;;;;1.77;1.50;;;14.30;99.90;;;;;;5014606;28;20560;-89
2022/08/31 04:13:42;;;;;;;1.67;1.47;;;14.40;99.90;;;;;;5014593;28;20559;-89
2022/08/31 04:16:11;;;;;;;7.73;1.47;;;14.30;99.90;;;;;;5014332;28;20265;-89
2022/08/31 04:18:42;;;;;;;1.73;1.37;;;14.30;99.90;;;;;;5014592;28;20173;-88
2022/08/31 04:21:13;;;;;;;2.37;1.43;;;14.20;99.90;;;;;;5014390;28;20661;-89
2022/08/31 04:23:39;;;;;;;3.13;1.30;;;14.20;99.90;;;;;;5014189;28;20199;-88
2022/08/31 04:26:09;;;;;;;5.23;1.80;;;14.20;99.90;;;;;;5014166;28;20573;-89
2022/08/31 04:28:35;;;;;;;6.23;1.80;;;14.10;99.90;;;;;;5014398;28;20595;-89
2022/08/31 04:31:07;;;;;;;1.63;1.43;;;14.20;99.90;;;;;;5014596;28;20209;-89
2022/08/31 04:33:36;;;;;;;5.47;1.80;;;14.20;99.90;;;;;;5014196;28;20566;-88
2022/08/31 04:36:11;;;;;;;3.30;1.60;;;14.20;99.90;;;;;;5014262;28;20197;-89
2022/08/31 04:38:37;;;;;;;5.77;1.37;;;14.20;99.90;;;;;;5015929;28;20643;-89
2022/08/31 04:41:09;;;;;;;2.07;1.40;;;14.10;99.90;;;;;;5017977;28;20178;-89
2022/08/31 04:43:36;;;;;;;3.93;1.60;;;14.10;99.90;;;;;;5018018;28;20173;-89
2022/08/31 04:46:04;;;;;;;4.07;1.57;;;14.20;99.90;;;;;;5017815;28;20228;-89
2022/08/31 04:48:31;;;;;;;4.83;1.50;;;14.00;99.90;;;;;;5017732;28;20659;-89
2022/08/31 04:51:05;;;;;;;6.40;1.97;;;14.00;99.90;;;;;;5017800;28;20650;-89
2022/08/31 04:53:32;;;;;;;2.23;1.60;;;14.00;99.90;;;;;;5017354;28;20197;-89
2022/08/31 04:55:58;;;;;;;2.93;1.60;;;13.90;99.90;;;;;;5017631;28;20546;-89
2022/08/31 04:58:24;;;;;;;2.07;1.60;;;14.00;99.90;;;;;;5017756;28;20175;-89
2022/08/31 05:00:51;;;;;;;4.00;1.90;;;14.00;99.90;;;;;;5017633;28;20174;-88
2022/08/31 05:03:19;;;;;;;3.40;1.47;;;14.00;99.90;;;;;;5017370;28;20190;-89
2022/08/31 05:05:51;;;;;;;5.50;1.47;;;14.00;99.90;;;;;;5017594;28;20261;-89
2022/08/31 05:08:17;;;;;;;2.23;1.40;;;14.00;99.90;;;;;;5017473;28;20187;-88
2022/08/31 05:10:43;;;;;;;4.47;1.37;;;14.10;99.90;;;;;;5017776;28;20704;-88
2022/08/31 05:13:09;;;;;;;5.97;1.53;;;14.00;99.90;;;;;;5017217;28;20891;-88
2022/08/31 05:15:40;;;;;;;2.70;1.70;;;14.00;99.90;;;;;;5017283;28;20215;-88
2022/08/31 05:18:05;;;;;;;2.73;1.40;;;14.00;99.90;;;;;;5017374;28;20595;-89
2022/08/31 05:20:31;;;;;;;3.00;1.43;;;14.00;99.90;;;;;;5017357;28;20177;-89
2022/08/31 05:22:57;;;;;;;4.93;1.53;;;14.00;99.90;;;;;;5016937;28;20224;-89
2022/08/31 05:25:22;;;;;;;2.33;1.30;;;13.90;99.90;;;;;;5017172;28;20182;-88
2022/08/31 05:27:48;;;;;;;8.73;1.50;;;14.10;99.90;;;;;;5017201;28;20579;-89
2022/08/31 05:30:14;;;;;;;4.93;1.40;;;14.10;99.90;;;;;;5017609;28;20181;-88
2022/08/31 05:32:39;;;;;;;5.07;1.30;;;14.10;99.90;;;;;;5016929;28;20232;-88
2022/08/31 05:35:05;;;;;;;9.47;1.33;;;14.00;99.90;;;;;;5017091;28;20172;-89
2022/08/31 05:37:31;;;;;;;3.23;1.80;;;14.10;99.90;;;;;;5016977;28;20207;-89
2022/08/31 05:39:57;;;;;;;1.60;1.40;;;14.20;99.90;;;;;;5017077;28;20255;-88
2022/08/31 05:42:23;;;;;;;3.43;1.40;;;14.10;99.90;;;;;;5016829;28;20271;-89
2022/08/31 05:44:48;;;;;;;5.60;1.30;;;14.20;99.90;;;;;;5016981;28;20188;-89
2022/08/31 05:47:14;;;;;;;5.77;1.50;;;14.10;99.90;;;;;;5016957;28;20201;-89
2022/08/31 05:49:42;;;;;;;3.30;1.23;;;14.10;99.90;;;;;;5016692;28;20186;-89
2022/08/31 05:52:08;;;;;;;2.33;1.30;;;14.10;99.90;;;;;;5016435;28;20202;-89
2022/08/31 05:54:35;;;;;;;5.70;1.40;;;14.20;99.90;;;;;;5017002;28;20634;-89
2022/08/31 05:57:01;;;;;;;2.93;1.13;;;14.20;99.90;;;;;;5016840;28;20650;-89
2022/08/31 05:59:30;;;;;;;4.40;1.63;;;14.20;99.90;;;;;;5016540;28;20192;-88
2022/08/31 06:01:56;;;;;;;5.40;1.37;;;14.30;99.90;;;;;;5016725;28;20178;-89
2022/08/31 06:04:22;;;;;;;7.23;1.30;;;14.70;99.90;;;;;;5016652;28;20543;-89
2022/08/31 06:06:48;;;;;;;3.23;1.27;;;15.00;99.90;;;;;;5016367;28;20201;-89
2022/08/31 06:09:14;;;;;;;7.03;1.47;;;15.20;99.90;;;;;;5016789;28;20178;-89
2022/08/31 06:11:41;;;;;;;3.33;1.13;;;15.30;99.90;;;;;;5016650;28;20174;-89
2022/08/31 06:14:08;;;;;;;1.70;1.13;;;15.40;99.90;;;;;;5016478;28;20666;-89
2022/08/31 06:16:35;;;;;;;2.60;1.30;;;15.40;99.90;;;;;;5017393;28;20233;-86
2022/08/31 06:19:05;;;;;;;5.00;1.30;;;15.90;99.90;;;;;;5019584;28;20172;-84
2022/08/31 06:21:34;;;;;;;2.33;1.30;;;16.10;99.90;;;;;;5018769;28;20186;-89
2022/08/31 06:24:02;;;;;;;3.30;1.90;;;16.40;99.90;;;;;;5017344;28;20208;-85
2022/08/31 06:26:29;;;;;;;4.20;1.20;;;16.90;99.90;;;;;;5034973;28;20497;-86
2022/08/31 06:28:58;;;;;;;2.10;1.40;;;17.10;99.90;;;;;;5018203;28;20688;-85
2022/08/31 06:31:34;;;;;;;9.70;1.33;;;17.10;99.90;;;;;;5018190;28;20550;-86
2022/08/31 06:34:01;;;;;;;4.03;1.50;;;17.10;99.90;;;;;;5019248;28;20193;-85
2022/08/31 06:36:29;;;;;;;8.03;1.30;;;17.20;99.90;;;;;;5018699;28;20198;-84
2022/08/31 06:38:58;;;;;;;3.17;1.40;;;17.00;99.90;;;;;;5018283;28;20173;-86
2022/08/31 06:41:38;;;;;;;6.03;2.17;;;17.10;99.90;;;;;;5016800;28;20177;-86
2022/08/31 06:44:10;;;;;;;2.63;1.47;;;17.00;99.90;;;;;;5020581;28;20215;-87
2022/08/31 06:46:37;;;;;;;2.93;1.43;;;17.10;99.90;;;;;;5020537;28;20202;-87
2022/08/31 06:49:04;;;;;;;2.37;1.20;;;17.20;99.90;;;;;;5021159;28;20189;-86
2022/08/31 06:51:35;;;;;;;4.97;2.17;;;17.00;99.90;;;;;;5038620;28;20794;-87
2022/08/31 06:54:02;;;;;;;1.30;1.20;;;16.90;99.90;;;;;;5018346;28;20273;-86
2022/08/31 06:56:28;;;;;;;11.10;1.70;;;16.70;99.90;;;;;;5017078;28;20201;-87
2022/08/31 06:58:54;;;;;;;6.97;1.57;;;16.70;99.90;;;;;;5016953;28;20676;-88
2022/08/31 07:01:28;;;;;;;2.63;1.73;;;16.70;99.90;;;;;;5016657;28;20235;-86
2022/08/31 07:03:58;;;;;;;27.77;3.17;;;17.10;99.90;;;;;;5016567;28;20292;-86
2022/08/31 07:06:30;;;;;;;10.13;1.80;;;17.10;99.90;;;;;;5016262;28;20198;-85
2022/08/31 07:08:59;;;;;;;5.50;1.87;;;17.30;99.90;;;;;;5017193;28;20273;-87
2022/08/31 07:11:32;;;;;;;6.93;1.63;;;17.40;99.90;;;;;;5016731;28;20212;-86
2022/08/31 07:13:57;;;;;;;31.03;2.57;;;17.40;99.90;;;;;;5016910;28;20197;-85
2022/08/31 07:16:25;;;;;;;3.80;1.43;;;17.50;99.90;;;;;;5014994;28;20304;-83
2022/08/31 07:18:53;;;;;;;4.17;1.80;;;17.50;99.90;;;;;;5016094;28;20188;-84
2022/08/31 07:21:25;;;;;;;4.60;1.53;;;17.80;99.90;;;;;;5015244;28;20176;-84
2022/08/31 07:23:52;;;;;;;3.80;1.60;;;17.80;99.90;;;;;;5015755;28;20703;-84
2022/08/31 07:26:33;;;;;;;204.43;9.60;;;18.20;99.90;;;;;;5016663;28;20201;-83
2022/08/31 07:29:00;;;;;;;8.55;1.58;;;18.80;99.90;;;;;;5016612;28;20174;-84
2022/08/31 07:31:40;;;;;;;2.30;1.27;;;19.60;99.90;;;;;;5018527;28;20178;-83
2022/08/31 07:34:06;;;;;;;1.20;1.10;;;20.00;99.90;;;;;;5020494;28;20216;-83
2022/08/31 07:42:07;;;;;;;7.57;1.40;;;20.30;99.90;;;;;;5019283;28;20194;-84
2022/08/31 07:42:08;;;;;;;2.13;1.45;;;20.10;99.90;;;;;;5037357;28;20261;-85
2022/08/31 07:44:34;;;;;;;6.40;1.55;;;19.80;99.90;;;;;;5017105;28;20200;-85
2022/08/31 07:46:59;;;;;;;4.22;1.45;;;20.00;99.90;;;;;;5019372;28;20202;-84
2022/08/31 07:49:25;;;;;;;2.35;1.60;;;19.30;99.90;;;;;;5015756;28;20646;-85
2022/08/31 07:51:52;;;;;;;27.13;2.75;;;18.80;99.90;;;;;;5014369;28;20170;-84
2022/08/31 07:54:22;;;;;;;5.68;1.60;;;19.00;99.90;;;;;;5014739;28;20184;-84
2022/08/31 07:56:50;;;;;;;3.65;1.60;;;19.10;99.90;;;;;;5014519;28;20205;-85
2022/08/31 07:59:17;;;;;;;14.82;2.40;;;19.20;99.90;;;;;;5014120;28;20646;-85
2022/08/31 08:01:43;;;;;;;68.13;5.25;;;19.30;99.90;;;;;;5014428;28;20174;-84
2022/08/31 08:04:18;;;;;;;2.75;1.40;;;19.10;99.90;;;;;;5015541;28;20173;-84
2022/08/31 08:06:44;;;;;;;5.82;1.70;;;19.40;99.90;;;;;;5013231;28;20280;-85
2022/08/31 08:09:10;;;;;;;3.15;1.70;;;19.80;99.90;;;;;;5013715;28;20659;-85
2022/08/31 08:11:40;;;;;;;1.98;1.42;;;19.40;99.90;;;;;;5014273;28;20268;-85
2022/08/31 08:14:06;;;;;;;4.00;1.33;;;19.40;99.90;;;;;;5019114;28;20257;-84
2022/08/31 08:16:32;;;;;;;3.70;1.45;;;19.40;99.90;;;;;;5020340;28;20244;-86
2022/08/31 08:18:58;;;;;;;2.80;1.60;;;19.90;99.90;;;;;;5018449;28;20632;-85
2022/08/31 08:21:24;;;;;;;4.95;1.50;;;19.90;99.90;;;;;;5018296;28;20158;-84
2022/08/31 08:23:50;;;;;;;3.13;1.67;;;20.30;99.90;;;;;;5018451;28;20219;-85
2022/08/31 08:26:15;;;;;;;4.35;1.75;;;20.70;99.90;;;;;;5018388;28;20251;-84
2022/08/31 08:28:41;;;;;;;4.22;1.63;;;20.30;99.90;;;;;;5018646;28;20177;-85
2022/08/31 08:31:15;;;;;;;1.88;1.50;;;20.70;99.90;;;;;;5017989;28;20174;-85
2022/08/31 08:33:42;;;;;;;3.65;1.90;;;21.10;99.90;;;;;;5018155;28;20205;-85
2022/08/31 08:36:08;;;;;;;13.02;2.10;;;20.80;99.90;;;;;;5017801;28;20193;-84
2022/08/31 08:38:37;;;;;;;2.38;1.92;;;21.20;99.90;;;;;;5018159;28;20631;-84
2022/08/31 08:41:15;;;;;;;2.75;1.85;;;21.60;99.90;;;;;;5017552;28;20166;-84
2022/08/31 08:43:51;;;;;;;30.90;2.58;;;21.30;99.40;;;;;;5017055;28;20639;-84
2022/08/31 08:46:25;;;;;;;122.55;8.55;;;21.60;99.90;;;;;;5019357;28;20197;-82
2022/08/31 08:48:51;;;;;;;7.32;2.00;;;22.10;99.90;;;;;;5019765;28;20180;-83
2022/08/31 08:51:23;;;;;;;43.13;4.25;;;21.70;99.90;;;;;;5019885;28;20173;-82
2022/08/31 08:53:53;;;;;;;11.02;2.80;;;21.80;99.60;;;;;;5019341;28;20330;-82
2022/08/31 08:56:19;;;;;;;3.78;2.30;;;22.10;99.30;;;;;;5020167;28;20186;-82
2022/08/31 08:58:45;;;;;;;6.03;2.25;;;22.40;99.00;;;;;;5019031;28;20166;-82
2022/08/31 09:01:23;;;;;;;38.60;3.72;;;22.10;99.20;;;;;;5019516;28;20177;-82
2022/08/31 09:04:10;;;;;;;2.50;2.30;;;22.30;99.40;;;;;;5019206;28;20642;-81
2022/08/31 09:06:54;;;;;;;17.55;2.50;;;22.70;97.80;;;;;;5019112;28;20229;-82
2022/08/31 09:09:50;;;;;;;8.43;3.22;;;23.10;98.40;;;;;;5018744;28;20559;-82
2022/08/31 09:12:29;;;;;;;11.30;3.00;;;23.10;98.70;;;;;;5017899;28;20668;-82
2022/08/31 09:15:14;;;;;;;3.60;2.28;;;23.10;98.40;;;;;;5018363;28;20190;-82
2022/08/31 09:17:58;;;;;;;2.30;2.00;;;22.30;98.10;;;;;;5019395;28;20200;-82
2022/08/31 09:20:27;;;;;;;10.45;2.45;;;23.10;98.30;;;;;;5019206;28;20178;-82
2022/08/31 09:22:55;;;;;;;4.80;2.20;;;23.00;97.70;;;;;;5018737;28;20178;-82
2022/08/31 09:25:31;;;;;;;5.43;2.33;;;23.60;96.70;;;;;;5018655;28;20185;-82
2022/08/31 09:28:01;;;;;;;4.60;2.08;;;23.20;97.20;;;;;;5019015;28;20200;-82
2022/08/31 09:30:50;;;;;;;2.15;2.03;;;23.30;97.10;;;;;;5035952;28;20649;-83
2022/08/31 09:33:33;;;;;;;3.83;1.83;;;23.40;97.30;;;;;;5017603;28;20300;-84
2022/08/31 09:36:21;;;;;;;3.55;2.00;;;23.90;96.80;;;;;;5016825;28;20169;-84
2022/08/31 09:38:48;;;;;;;2.30;2.03;;;23.40;96.80;;;;;;5017956;28;20178;-83
2022/08/31 09:41:32;;;;;;;3.53;2.10;;;23.20;96.30;;;;;;5016934;28;20170;-83
2022/08/31 09:44:16;;;;;;;6.00;2.00;;;23.20;97.70;;;;;;5017420;28;20169;-83
2022/08/31 09:46:47;;;;;;;25.45;2.83;;;22.90;96.20;;;;;;5017592;28;20201;-83
2022/08/31 09:49:35;;;;;;;7.85;2.20;;;23.10;97.00;;;;;;5017525;28;20181;-85
2022/08/31 09:55:13;;;;;;;4.53;1.90;;;23.20;95.90;;;;;;5035673;28;20165;-84
2022/08/31 09:57:48;;;;;;;4.95;2.00;;;23.80;96.60;;;;;;5017133;28;20244;-84
2022/08/31 10:00:15;;;;;;;14.32;2.72;;;24.20;95.80;;;;;;5017980;28;20169;-84
2022/08/31 10:02:42;;;;;;;6.65;1.95;;;24.40;95.70;;;;;;5017300;28;20170;-84
2022/08/31 10:05:30;;;;;;;7.43;2.85;;;24.10;94.80;;;;;;5017493;28;20186;-84
2022/08/31 10:08:03;;;;;;;13.73;6.18;;;24.00;95.00;;;;;;5017517;28;20221;-83
2022/08/31 10:10:35;;;;;;;14.40;3.05;;;24.40;94.90;;;;;;5016821;28;20600;-84
2022/08/31 10:13:14;;;;;;;1.98;1.88;;;24.70;94.40;;;;;;5016906;28;20193;-84
2022/08/31 10:15:51;;;;;;;9.45;2.08;;;24.20;94.90;;;;;;5017277;28;20209;-84
2022/08/31 10:18:32;;;;;;;5.78;2.03;;;24.50;94.80;;;;;;5016604;28;20220;-83
2022/08/31 10:21:13;;;;;;;2.05;1.70;;;24.00;94.50;;;;;;5017532;28;20174;-84
2022/08/31 10:23:55;;;;;;;13.85;2.10;;;23.40;94.60;;;;;;5017407;28;20170;-83
2022/08/31 10:26:36;;;;;;;4.80;2.15;;;24.10;94.80;;;;;;5016889;28;20736;-85
2022/08/31 10:29:12;;;;;;;3.28;1.77;;;24.30;94.20;;;;;;5018027;28;20170;-84
2022/08/31 10:31:44;;;;;;;3.53;1.60;;;24.00;93.90;;;;;;5016510;28;20197;-82
2022/08/31 10:37:42;;;;;;;10.70;2.40;;;24.40;93.90;;;;;;5035684;28;20212;-81
2022/08/31 10:40:33;;;;;;;2.20;1.98;;;24.50;93.50;;;;;;5017657;28;20731;-81
2022/08/31 10:42:59;;;;;;;4.97;2.08;;;25.30;91.80;;;;;;5002764;28;20182;-82
2022/08/31 10:45:27;;;;;;;10.07;3.42;;;25.80;91.60;;;;;;4995993;28;20187;-82
2022/08/31 10:47:55;;;;;;;4.50;2.22;;;25.50;91.90;;;;;;4995827;28;20733;-82
2022/08/31 10:50:43;;;;;;;2.30;2.10;;;25.00;92.60;;;;;;4998186;28;20275;-82
2022/08/31 10:53:45;;;;;;;96.93;55.72;;;25.60;92.60;;;;;;4997783;28;20194;-83
2022/08/31 10:56:38;;;;;;;13.93;6.90;;;25.60;92.20;;;;;;4998649;28;20209;-82
2022/08/31 10:59:23;;;;;;;2.90;2.63;;;25.60;92.60;;;;;;4998184;28;20171;-82
2022/08/31 11:01:57;;;;;;;16.45;2.38;;;25.10;92.50;;;;;;4997144;28;20174;-82
2022/08/31 11:04:41;;;;;;;75.10;51.05;;;24.60;92.50;;;;;;4996955;28;20185;-83
2022/08/31 11:07:31;;;;;;;15.95;10.50;;;24.90;92.60;;;;;;5016630;28;20197;-83
2022/08/31 11:10:00;;;;;;;39.00;23.90;;;25.30;93.10;;;;;;5017517;28;20166;-81
2022/08/31 11:12:40;;;;;;;9.13;5.10;;;24.90;92.00;;;;;;5034578;28;20566;-82
2022/08/31 11:15:31;;;;;;;4.25;3.17;;;25.20;92.20;;;;;;5018169;28;20189;-83
2022/08/31 11:18:34;;;;;;;4.95;2.20;;;25.00;92.20;;;;;;5017860;28;20220;-82
2022/08/31 11:21:23;;;;;;;4.95;2.78;;;24.30;92.30;;;;;;5018823;28;20177;-82
2022/08/31 11:24:27;;;;;;;3.53;1.95;;;25.30;91.90;;;;;;5018167;28;20786;-82
2022/08/31 11:26:52;;;;;;;4.88;2.13;;;25.80;91.10;;;;;;5017954;28;20208;-82
2022/08/31 11:29:33;;;;;;;6.28;2.20;;;26.40;91.30;;;;;;5017885;28;20178;-82
2022/08/31 11:32:28;;;;;;;8.80;1.83;;;25.80;90.70;;;;;;5017447;28;20745;-82
2022/08/31 11:34:59;;;;;;;6.10;1.80;;;25.00;91.30;;;;;;5018647;28;20178;-82
2022/08/31 11:37:51;;;;;;;3.60;2.08;;;25.10;91.70;;;;;;5014955;28;20190;-79
2022/08/31 11:40:42;;;;;;;3.17;1.83;;;25.10;91.60;;;;;;5017013;28;20638;-82
2022/08/31 11:43:13;;;;;;;5.85;1.88;;;25.70;90.90;;;;;;5015821;28;20184;-80
2022/08/31 11:45:43;;;;;;;2.83;1.88;;;24.90;91.30;;;;;;5014782;28;20181;-80
2022/08/31 11:48:50;;;;;;;2.78;1.70;;;24.70;91.70;;;;;;5015267;28;20185;-80
2022/08/31 11:51:32;;;;;;;2.28;1.75;;;24.30;91.40;;;;;;5016922;28;20170;-81
2022/08/31 11:54:00;;;;;;;1.92;1.70;;;24.00;91.20;;;;;;5017148;28;20202;-81
2022/08/31 11:56:38;;;;;;;5.82;1.80;;;24.40;91.70;;;;;;5016853;28;20186;-82
2022/08/31 11:59:25;;;;;;;12.80;1.90;;;25.10;90.90;;;;;;5015686;28;20665;-82
2022/08/31 12:01:55;;;;;;;3.08;1.70;;;26.10;89.60;;;;;;5015630;28;20244;-81
2022/08/31 12:04:45;;;;;;;2.88;1.70;;;26.70;87.60;;;;;;5016592;28;20217;-82
2022/08/31 12:07:43;;;;;;;1.88;1.50;;;27.30;87.80;;;;;;5008849;28;20277;-82
2022/08/31 12:10:53;;;;;;;3.85;1.63;;;26.20;88.60;;;;;;5021752;28;20643;-82
2022/08/31 12:13:48;;;;;;;2.33;1.45;;;25.10;91.30;;;;;;5015878;28;20289;-82
2022/08/31 12:16:38;;;;;;;2.60;1.60;;;25.00;90.70;;;;;;5014189;28;20267;-82
2022/08/31 12:25:34;;;;;;;1.58;1.45;;;25.80;90.60;;;;;;4995885;28;20651;-82
2022/08/31 12:28:25;;;;;;;3.08;1.67;;;26.30;90.30;;;;;;4996313;28;20746;-82
2022/08/31 12:30:53;;;;;;;1.50;1.40;;;25.40;90.20;;;;;;4996123;28;20755;-82
2022/08/31 12:33:27;;;;;;;6.18;1.60;;;25.70;90.30;;;;;;4995927;28;20217;-82
2022/08/31 12:36:09;;;;;;;3.42;1.40;;;25.40;90.30;;;;;;5003492;28;20179;-82
2022/08/31 12:38:34;;;;;;;7.20;1.40;;;25.30;90.60;;;;;;5037030;22;20200;-83
2022/08/31 12:41:02;;;;;;;4.95;1.42;;;25.20;91.50;;;;;;5042590;28;20301;-84
2022/08/31 12:43:40;;;;;;;1.50;1.38;;;25.10;91.40;;;;;;5018764;28;20182;-85
2022/08/31 12:46:15;;;;;;;2.35;1.52;;;25.10;91.20;;;;;;5001893;28;20229;-84
2022/08/31 12:48:52;;;;;;;5.85;1.60;;;24.70;91.90;;;;;;5012374;28;20178;-84
2022/08/31 12:51:39;;;;;;;3.20;1.70;;;24.60;91.80;;;;;;5013803;28;20193;-86
2022/08/31 12:54:42;;;;;;;2.63;1.38;;;24.50;91.90;;;;;;5011523;28;20313;-84
2022/08/31 12:57:47;;;;;;;4.00;1.40;;;23.70;92.80;;;;;;5013246;28;20173;-84
2022/08/31 13:00:22;;;;;;;4.93;2.13;;;23.50;92.70;;;;;;4996022;28;20178;-86
2022/08/31 13:02:52;;;;;;;6.47;1.50;;;23.60;92.60;;;;;;4998631;28;20173;-84
2022/08/31 13:05:21;;;;;;;3.65;1.50;;;23.30;93.40;;;;;;4999285;28;20237;-83
2022/08/31 13:07:48;;;;;;;3.38;1.60;;;23.30;93.50;;;;;;4999163;28;20274;-85
2022/08/31 13:10:26;;;;;;;4.32;1.50;;;23.60;92.70;;;;;;5017274;28;20545;-84
2022/08/31 13:12:59;;;;;;;3.35;1.40;;;23.70;92.50;;;;;;5016693;28;20693;-84
2022/08/31 13:15:31;;;;;;;7.38;1.85;;;23.70;92.90;;;;;;4998155;28;20198;-85
2022/08/31 13:18:01;;;;;;;4.68;1.40;;;23.50;92.50;;;;;;5016542;28;20298;-83
2022/08/31 13:20:34;;;;;;;2.58;1.58;;;23.70;92.20;;;;;;4999434;28;20185;-84
2022/08/31 13:23:01;;;;;;;4.95;1.40;;;23.70;92.80;;;;;;4999055;28;20214;-83
2022/08/31 13:25:34;;;;;;;6.43;1.60;;;24.30;92.40;;;;;;5016503;28;20202;-83
2022/08/31 13:28:06;;;;;;;6.50;1.80;;;23.80;92.50;;;;;;5016410;28;20177;-84